sensor_id;sensor_type;location;lat;lon;timestamp;P1;durP1;ratioP1;P2;durP2;ratioP2
13708;SDS011;54933;51.908;7.730;2023-08-06T00:01:10;0.63;;;0.63;;
13708;SDS011;54933;51.908;7.730;2023-08-06T00:03:35;0.60;;;0.60;;
13708;SDS011;54933;51.908;7.730;2023-08-06T00:06:01;1.00;;;0.67;;
13708;SDS011;54933;51.908;7.730;2023-08-06T00:08:26;1.00;;;0.80;;
13708;SDS011;54933;51.908;7.730;2023-08-06T00:10:52;1.90;;;0.60;;
13708;SDS011;54933;51.908;7.730;2023-08-06T00:13:17;1.80;;;0.80;;
13708;SDS011;54933;51.908;7.730;2023-08-06T00:15:42;0.80;;;0.80;;
13708;SDS011;54933;51.908;7.730;2023-08-06T00:18:07;0.97;;;0.80;;
13708;SDS011;54933;51.908;7.730;2023-08-06T00:20:33;1.17;;;1.03;;
13708;SDS011;54933;51.908;7.730;2023-08-06T00:22:58;3.50;;;0.80;;
13708;SDS011;54933;51.908;7.730;2023-08-06T00:25:23;0.80;;;0.80;;
13708;SDS011;54933;51.908;7.730;2023-08-06T00:27:49;0.80;;;0.80;;
13708;SDS011;54933;51.908;7.730;2023-08-06T00:30:14;0.77;;;0.77;;
13708;SDS011;54933;51.908;7.730;2023-08-06T00:32:39;0.80;;;0.80;;
13708;SDS011;54933;51.908;7.730;2023-08-06T00:35:04;1.00;;;0.67;;
13708;SDS011;54933;51.908;7.730;2023-08-06T00:37:30;0.90;;;0.90;;
13708;SDS011;54933;51.908;7.730;2023-08-06T00:39:55;0.60;;;0.60;;
13708;SDS011;54933;51.908;7.730;2023-08-06T00:42:21;1.03;;;0.70;;
13708;SDS011;54933;51.908;7.730;2023-08-06T00:44:47;0.70;;;0.70;;
13708;SDS011;54933;51.908;7.730;2023-08-06T00:47:12;0.80;;;0.80;;
13708;SDS011;54933;51.908;7.730;2023-08-06T00:49:38;0.70;;;0.70;;
13708;SDS011;54933;51.908;7.730;2023-08-06T00:52:04;0.97;;;0.97;;
13708;SDS011;54933;51.908;7.730;2023-08-06T00:54:31;0.80;;;0.80;;
13708;SDS011;54933;51.908;7.730;2023-08-06T00:56:58;0.97;;;0.87;;
13708;SDS011;54933;51.908;7.730;2023-08-06T00:59:26;0.60;;;0.60;;
13708;SDS011;54933;51.908;7.730;2023-08-06T01:01:51;1.63;;;0.70;;
13708;SDS011;54933;51.908;7.730;2023-08-06T01:04:17;0.80;;;0.80;;
13708;SDS011;54933;51.908;7.730;2023-08-06T01:06:44;1.03;;;0.90;;
13708;SDS011;54933;51.908;7.730;2023-08-06T01:09:21;0.50;;;0.50;;
13708;SDS011;54933;51.908;7.730;2023-08-06T01:12:06;0.63;;;0.63;;
13708;SDS011;54933;51.908;7.730;2023-08-06T01:17:30;0.80;;;0.80;;
13708;SDS011;54933;51.908;7.730;2023-08-06T01:19:55;0.80;;;0.80;;
13708;SDS011;54933;51.908;7.730;2023-08-06T01:22:21;0.80;;;0.80;;
13708;SDS011;54933;51.908;7.730;2023-08-06T01:24:47;0.90;;;0.90;;
13708;SDS011;54933;51.908;7.730;2023-08-06T01:27:17;0.80;;;0.60;;
13708;SDS011;54933;51.908;7.730;2023-08-06T01:29:54;0.70;;;0.70;;
13708;SDS011;54933;51.908;7.730;2023-08-06T01:32:27;0.80;;;0.80;;
13708;SDS011;54933;51.908;7.730;2023-08-06T01:34:56;1.67;;;0.67;;
13708;SDS011;54933;51.908;7.730;2023-08-06T01:37:24;0.77;;;0.77;;
13708;SDS011;54933;51.908;7.730;2023-08-06T01:39:50;0.77;;;0.70;;
13708;SDS011;54933;51.908;7.730;2023-08-06T01:42:15;0.87;;;0.60;;
13708;SDS011;54933;51.908;7.730;2023-08-06T01:44:40;0.60;;;0.60;;
13708;SDS011;54933;51.908;7.730;2023-08-06T01:47:06;0.83;;;0.83;;
13708;SDS011;54933;51.908;7.730;2023-08-06T01:49:31;0.67;;;0.67;;
13708;SDS011;54933;51.908;7.730;2023-08-06T01:51:56;0.70;;;0.70;;
13708;SDS011;54933;51.908;7.730;2023-08-06T01:54:22;0.97;;;0.70;;
13708;SDS011;54933;51.908;7.730;2023-08-06T01:56:47;0.60;;;0.60;;
13708;SDS011;54933;51.908;7.730;2023-08-06T01:59:13;0.50;;;0.50;;
13708;SDS011;54933;51.908;7.730;2023-08-06T02:01:38;0.60;;;0.60;;
13708;SDS011;54933;51.908;7.730;2023-08-06T02:04:03;0.73;;;0.73;;
13708;SDS011;54933;51.908;7.730;2023-08-06T02:06:28;0.70;;;0.70;;
13708;SDS011;54933;51.908;7.730;2023-08-06T02:08:54;0.70;;;0.70;;
13708;SDS011;54933;51.908;7.730;2023-08-06T02:11:19;2.57;;;0.80;;
13708;SDS011;54933;51.908;7.730;2023-08-06T02:13:45;0.53;;;0.53;;
13708;SDS011;54933;51.908;7.730;2023-08-06T02:16:10;0.60;;;0.60;;
13708;SDS011;54933;51.908;7.730;2023-08-06T02:18:36;0.70;;;0.70;;
13708;SDS011;54933;51.908;7.730;2023-08-06T02:21:01;0.70;;;0.70;;
13708;SDS011;54933;51.908;7.730;2023-08-06T02:23:27;1.17;;;0.70;;
13708;SDS011;54933;51.908;7.730;2023-08-06T02:25:56;0.60;;;0.60;;
13708;SDS011;54933;51.908;7.730;2023-08-06T02:28:25;0.77;;;0.77;;
13708;SDS011;54933;51.908;7.730;2023-08-06T02:30:51;0.67;;;0.67;;
13708;SDS011;54933;51.908;7.730;2023-08-06T02:33:16;0.73;;;0.63;;
13708;SDS011;54933;51.908;7.730;2023-08-06T02:35:41;0.53;;;0.53;;
13708;SDS011;54933;51.908;7.730;2023-08-06T02:38:07;0.70;;;0.70;;
13708;SDS011;54933;51.908;7.730;2023-08-06T02:40:32;0.70;;;0.70;;
13708;SDS011;54933;51.908;7.730;2023-08-06T02:42:57;0.60;;;0.60;;
13708;SDS011;54933;51.908;7.730;2023-08-06T02:45:22;0.50;;;0.50;;
13708;SDS011;54933;51.908;7.730;2023-08-06T02:47:48;0.60;;;0.60;;
13708;SDS011;54933;51.908;7.730;2023-08-06T02:50:13;0.60;;;0.60;;
13708;SDS011;54933;51.908;7.730;2023-08-06T02:52:38;0.70;;;0.70;;
13708;SDS011;54933;51.908;7.730;2023-08-06T02:55:05;0.70;;;0.70;;
13708;SDS011;54933;51.908;7.730;2023-08-06T02:57:31;0.60;;;0.60;;
13708;SDS011;54933;51.908;7.730;2023-08-06T02:59:56;0.60;;;0.60;;
13708;SDS011;54933;51.908;7.730;2023-08-06T03:02:21;0.70;;;0.70;;
13708;SDS011;54933;51.908;7.730;2023-08-06T03:04:47;0.60;;;0.60;;
13708;SDS011;54933;51.908;7.730;2023-08-06T03:07:12;0.70;;;0.70;;
13708;SDS011;54933;51.908;7.730;2023-08-06T03:09:37;0.97;;;0.97;;
13708;SDS011;54933;51.908;7.730;2023-08-06T03:12:03;0.60;;;0.60;;
13708;SDS011;54933;51.908;7.730;2023-08-06T03:14:28;0.60;;;0.60;;
13708;SDS011;54933;51.908;7.730;2023-08-06T03:16:53;0.70;;;0.70;;
13708;SDS011;54933;51.908;7.730;2023-08-06T03:19:18;0.70;;;0.70;;
13708;SDS011;54933;51.908;7.730;2023-08-06T03:21:44;0.70;;;0.70;;
13708;SDS011;54933;51.908;7.730;2023-08-06T03:24:09;0.63;;;0.63;;
13708;SDS011;54933;51.908;7.730;2023-08-06T03:26:34;0.60;;;0.60;;
13708;SDS011;54933;51.908;7.730;2023-08-06T03:29:00;0.60;;;0.60;;
13708;SDS011;54933;51.908;7.730;2023-08-06T03:31:25;0.67;;;0.67;;
13708;SDS011;54933;51.908;7.730;2023-08-06T03:33:50;1.40;;;0.40;;
13708;SDS011;54933;51.908;7.730;2023-08-06T03:36:15;0.60;;;0.60;;
13708;SDS011;54933;51.908;7.730;2023-08-06T03:38:41;0.67;;;0.67;;
13708;SDS011;54933;51.908;7.730;2023-08-06T03:41:06;0.80;;;0.67;;
13708;SDS011;54933;51.908;7.730;2023-08-06T03:43:31;2.83;;;0.87;;
13708;SDS011;54933;51.908;7.730;2023-08-06T03:45:56;0.70;;;0.70;;
13708;SDS011;54933;51.908;7.730;2023-08-06T03:48:22;1.40;;;0.80;;
13708;SDS011;54933;51.908;7.730;2023-08-06T03:50:47;0.50;;;0.50;;
13708;SDS011;54933;51.908;7.730;2023-08-06T03:53:12;0.63;;;0.63;;
13708;SDS011;54933;51.908;7.730;2023-08-06T03:55:37;1.43;;;0.63;;
13708;SDS011;54933;51.908;7.730;2023-08-06T03:58:03;0.60;;;0.60;;
13708;SDS011;54933;51.908;7.730;2023-08-06T04:00:28;0.70;;;0.70;;
13708;SDS011;54933;51.908;7.730;2023-08-06T04:02:53;0.70;;;0.70;;
13708;SDS011;54933;51.908;7.730;2023-08-06T04:05:19;0.70;;;0.70;;
13708;SDS011;54933;51.908;7.730;2023-08-06T04:07:44;0.50;;;0.50;;
13708;SDS011;54933;51.908;7.730;2023-08-06T04:10:09;0.93;;;0.77;;
13708;SDS011;54933;51.908;7.730;2023-08-06T04:12:34;1.03;;;0.80;;
13708;SDS011;54933;51.908;7.730;2023-08-06T04:15:01;0.70;;;0.70;;
13708;SDS011;54933;51.908;7.730;2023-08-06T04:17:27;0.50;;;0.50;;
13708;SDS011;54933;51.908;7.730;2023-08-06T04:19:53;0.50;;;0.50;;
13708;SDS011;54933;51.908;7.730;2023-08-06T04:22:20;0.60;;;0.60;;
13708;SDS011;54933;51.908;7.730;2023-08-06T04:24:46;0.67;;;0.67;;
13708;SDS011;54933;51.908;7.730;2023-08-06T04:27:13;0.60;;;0.60;;
13708;SDS011;54933;51.908;7.730;2023-08-06T04:29:39;0.47;;;0.47;;
13708;SDS011;54933;51.908;7.730;2023-08-06T04:32:06;0.77;;;0.70;;
13708;SDS011;54933;51.908;7.730;2023-08-06T04:34:33;0.53;;;0.53;;
13708;SDS011;54933;51.908;7.730;2023-08-06T04:36:58;0.53;;;0.53;;
13708;SDS011;54933;51.908;7.730;2023-08-06T04:39:24;0.77;;;0.77;;
13708;SDS011;54933;51.908;7.730;2023-08-06T04:41:50;0.60;;;0.60;;
13708;SDS011;54933;51.908;7.730;2023-08-06T04:44:15;0.60;;;0.60;;
13708;SDS011;54933;51.908;7.730;2023-08-06T04:46:40;0.70;;;0.70;;
13708;SDS011;54933;51.908;7.730;2023-08-06T04:49:06;0.40;;;0.40;;
13708;SDS011;54933;51.908;7.730;2023-08-06T04:51:31;0.70;;;0.70;;
13708;SDS011;54933;51.908;7.730;2023-08-06T04:53:56;0.60;;;0.60;;
13708;SDS011;54933;51.908;7.730;2023-08-06T04:56:22;0.60;;;0.60;;
13708;SDS011;54933;51.908;7.730;2023-08-06T04:58:47;0.60;;;0.60;;
13708;SDS011;54933;51.908;7.730;2023-08-06T05:01:13;0.60;;;0.60;;
13708;SDS011;54933;51.908;7.730;2023-08-06T05:03:38;0.40;;;0.40;;
13708;SDS011;54933;51.908;7.730;2023-08-06T05:06:03;0.50;;;0.50;;
13708;SDS011;54933;51.908;7.730;2023-08-06T05:08:29;0.50;;;0.50;;
13708;SDS011;54933;51.908;7.730;2023-08-06T05:10:54;0.60;;;0.60;;
13708;SDS011;54933;51.908;7.730;2023-08-06T05:13:19;0.47;;;0.47;;
13708;SDS011;54933;51.908;7.730;2023-08-06T05:15:44;0.53;;;0.53;;
13708;SDS011;54933;51.908;7.730;2023-08-06T05:18:11;2.23;;;0.70;;
13708;SDS011;54933;51.908;7.730;2023-08-06T05:20:37;0.63;;;0.63;;
13708;SDS011;54933;51.908;7.730;2023-08-06T05:23:03;0.70;;;0.70;;
13708;SDS011;54933;51.908;7.730;2023-08-06T05:25:28;0.70;;;0.70;;
13708;SDS011;54933;51.908;7.730;2023-08-06T05:27:53;0.50;;;0.50;;
13708;SDS011;54933;51.908;7.730;2023-08-06T05:30:19;0.63;;;0.63;;
13708;SDS011;54933;51.908;7.730;2023-08-06T05:32:44;1.13;;;0.60;;
13708;SDS011;54933;51.908;7.730;2023-08-06T05:35:09;0.63;;;0.63;;
13708;SDS011;54933;51.908;7.730;2023-08-06T05:37:34;0.40;;;0.40;;
13708;SDS011;54933;51.908;7.730;2023-08-06T05:40:00;0.50;;;0.50;;
13708;SDS011;54933;51.908;7.730;2023-08-06T05:42:26;0.70;;;0.70;;
13708;SDS011;54933;51.908;7.730;2023-08-06T05:44:51;0.50;;;0.50;;
13708;SDS011;54933;51.908;7.730;2023-08-06T05:47:17;0.50;;;0.50;;
13708;SDS011;54933;51.908;7.730;2023-08-06T05:49:42;0.70;;;0.70;;
13708;SDS011;54933;51.908;7.730;2023-08-06T05:52:07;0.60;;;0.60;;
13708;SDS011;54933;51.908;7.730;2023-08-06T05:54:33;0.80;;;0.80;;
13708;SDS011;54933;51.908;7.730;2023-08-06T05:56:58;0.83;;;0.67;;
13708;SDS011;54933;51.908;7.730;2023-08-06T05:59:23;0.70;;;0.70;;
13708;SDS011;54933;51.908;7.730;2023-08-06T06:01:49;0.60;;;0.60;;
13708;SDS011;54933;51.908;7.730;2023-08-06T06:04:14;0.50;;;0.50;;
13708;SDS011;54933;51.908;7.730;2023-08-06T06:06:39;0.50;;;0.50;;
13708;SDS011;54933;51.908;7.730;2023-08-06T06:09:06;1.87;;;0.60;;
13708;SDS011;54933;51.908;7.730;2023-08-06T06:11:32;0.57;;;0.57;;
13708;SDS011;54933;51.908;7.730;2023-08-06T06:13:57;0.60;;;0.60;;
13708;SDS011;54933;51.908;7.730;2023-08-06T06:16:22;0.60;;;0.60;;
13708;SDS011;54933;51.908;7.730;2023-08-06T06:18:48;0.60;;;0.60;;
13708;SDS011;54933;51.908;7.730;2023-08-06T06:21:13;0.50;;;0.50;;
13708;SDS011;54933;51.908;7.730;2023-08-06T06:23:38;0.83;;;0.83;;
13708;SDS011;54933;51.908;7.730;2023-08-06T06:26:04;0.40;;;0.40;;
13708;SDS011;54933;51.908;7.730;2023-08-06T06:28:29;0.60;;;0.60;;
13708;SDS011;54933;51.908;7.730;2023-08-06T06:30:59;0.60;;;0.60;;
13708;SDS011;54933;51.908;7.730;2023-08-06T06:33:25;0.50;;;0.50;;
13708;SDS011;54933;51.908;7.730;2023-08-06T06:35:50;0.57;;;0.43;;
13708;SDS011;54933;51.908;7.730;2023-08-06T06:38:15;0.63;;;0.63;;
13708;SDS011;54933;51.908;7.730;2023-08-06T06:40:41;5.80;;;0.50;;
13708;SDS011;54933;51.908;7.730;2023-08-06T06:43:06;0.63;;;0.63;;
13708;SDS011;54933;51.908;7.730;2023-08-06T06:45:31;0.70;;;0.70;;
13708;SDS011;54933;51.908;7.730;2023-08-06T06:47:56;0.63;;;0.63;;
13708;SDS011;54933;51.908;7.730;2023-08-06T06:50:22;0.40;;;0.40;;
13708;SDS011;54933;51.908;7.730;2023-08-06T06:52:47;0.53;;;0.53;;
13708;SDS011;54933;51.908;7.730;2023-08-06T06:55:12;0.50;;;0.50;;
13708;SDS011;54933;51.908;7.730;2023-08-06T06:57:37;0.50;;;0.50;;
13708;SDS011;54933;51.908;7.730;2023-08-06T07:00:03;0.67;;;0.60;;
13708;SDS011;54933;51.908;7.730;2023-08-06T07:02:28;0.50;;;0.50;;
13708;SDS011;54933;51.908;7.730;2023-08-06T07:04:54;0.60;;;0.60;;
13708;SDS011;54933;51.908;7.730;2023-08-06T07:07:19;0.60;;;0.60;;
13708;SDS011;54933;51.908;7.730;2023-08-06T07:09:44;1.10;;;0.60;;
13708;SDS011;54933;51.908;7.730;2023-08-06T07:12:10;0.50;;;0.50;;
13708;SDS011;54933;51.908;7.730;2023-08-06T07:14:35;0.60;;;0.60;;
13708;SDS011;54933;51.908;7.730;2023-08-06T07:17:00;0.57;;;0.57;;
13708;SDS011;54933;51.908;7.730;2023-08-06T07:19:25;0.60;;;0.60;;
13708;SDS011;54933;51.908;7.730;2023-08-06T07:21:51;0.60;;;0.60;;
13708;SDS011;54933;51.908;7.730;2023-08-06T07:24:16;0.70;;;0.70;;
13708;SDS011;54933;51.908;7.730;2023-08-06T07:26:41;0.50;;;0.50;;
13708;SDS011;54933;51.908;7.730;2023-08-06T07:29:07;0.57;;;0.57;;
13708;SDS011;54933;51.908;7.730;2023-08-06T07:31:32;0.60;;;0.60;;
13708;SDS011;54933;51.908;7.730;2023-08-06T07:33:57;0.60;;;0.60;;
13708;SDS011;54933;51.908;7.730;2023-08-06T07:36:22;0.73;;;0.73;;
13708;SDS011;54933;51.908;7.730;2023-08-06T07:38:48;0.60;;;0.60;;
13708;SDS011;54933;51.908;7.730;2023-08-06T07:41:16;2.53;;;0.80;;
13708;SDS011;54933;51.908;7.730;2023-08-06T07:43:41;0.53;;;0.53;;
13708;SDS011;54933;51.908;7.730;2023-08-06T07:46:07;4.00;;;0.70;;
13708;SDS011;54933;51.908;7.730;2023-08-06T07:48:33;0.60;;;0.60;;
13708;SDS011;54933;51.908;7.730;2023-08-06T07:50:58;0.60;;;0.60;;
13708;SDS011;54933;51.908;7.730;2023-08-06T07:53:24;0.70;;;0.70;;
13708;SDS011;54933;51.908;7.730;2023-08-06T07:55:53;0.70;;;0.70;;
13708;SDS011;54933;51.908;7.730;2023-08-06T07:58:19;0.87;;;0.70;;
13708;SDS011;54933;51.908;7.730;2023-08-06T08:00:45;1.90;;;0.70;;
13708;SDS011;54933;51.908;7.730;2023-08-06T08:03:12;1.37;;;0.50;;
13708;SDS011;54933;51.908;7.730;2023-08-06T08:05:38;0.60;;;0.60;;
13708;SDS011;54933;51.908;7.730;2023-08-06T08:08:04;0.50;;;0.50;;
13708;SDS011;54933;51.908;7.730;2023-08-06T08:10:30;0.87;;;0.50;;
13708;SDS011;54933;51.908;7.730;2023-08-06T08:12:56;1.57;;;0.70;;
13708;SDS011;54933;51.908;7.730;2023-08-06T08:15:21;0.60;;;0.60;;
13708;SDS011;54933;51.908;7.730;2023-08-06T08:17:46;45.90;;;4.93;;
13708;SDS011;54933;51.908;7.730;2023-08-06T08:20:13;22.57;;;2.50;;
13708;SDS011;54933;51.908;7.730;2023-08-06T08:22:38;11.43;;;1.97;;
13708;SDS011;54933;51.908;7.730;2023-08-06T08:25:04;12.60;;;2.50;;
13708;SDS011;54933;51.908;7.730;2023-08-06T08:27:29;12.77;;;1.53;;
13708;SDS011;54933;51.908;7.730;2023-08-06T08:29:55;9.73;;;2.43;;
13708;SDS011;54933;51.908;7.730;2023-08-06T08:32:21;10.53;;;1.40;;
13708;SDS011;54933;51.908;7.730;2023-08-06T08:34:46;7.90;;;1.17;;
13708;SDS011;54933;51.908;7.730;2023-08-06T08:37:11;14.17;;;1.50;;
13708;SDS011;54933;51.908;7.730;2023-08-06T08:39:38;12.50;;;1.50;;
13708;SDS011;54933;51.908;7.730;2023-08-06T08:42:03;9.77;;;1.30;;
13708;SDS011;54933;51.908;7.730;2023-08-06T08:44:28;33.70;;;3.37;;
13708;SDS011;54933;51.908;7.730;2023-08-06T08:46:56;21.03;;;2.77;;
13708;SDS011;54933;51.908;7.730;2023-08-06T08:49:23;14.50;;;2.13;;
13708;SDS011;54933;51.908;7.730;2023-08-06T08:51:49;13.40;;;2.93;;
13708;SDS011;54933;51.908;7.730;2023-08-06T08:54:17;2.13;;;2.03;;
13708;SDS011;54933;51.908;7.730;2023-08-06T08:56:44;12.30;;;2.80;;
13708;SDS011;54933;51.908;7.730;2023-08-06T08:59:09;24.23;;;4.83;;
13708;SDS011;54933;51.908;7.730;2023-08-06T09:01:35;25.47;;;3.80;;
13708;SDS011;54933;51.908;7.730;2023-08-06T09:04:04;29.87;;;3.40;;
13708;SDS011;54933;51.908;7.730;2023-08-06T09:06:30;28.13;;;3.40;;
13708;SDS011;54933;51.908;7.730;2023-08-06T09:09:01;19.03;;;3.20;;
13708;SDS011;54933;51.908;7.730;2023-08-06T09:11:35;34.60;;;3.43;;
13708;SDS011;54933;51.908;7.730;2023-08-06T09:14:07;24.83;;;2.87;;
13708;SDS011;54933;51.908;7.730;2023-08-06T09:16:37;40.03;;;3.40;;
13708;SDS011;54933;51.908;7.730;2023-08-06T09:19:12;16.70;;;2.23;;
13708;SDS011;54933;51.908;7.730;2023-08-06T09:21:40;11.13;;;2.27;;
13708;SDS011;54933;51.908;7.730;2023-08-06T09:24:09;24.33;;;2.50;;
13708;SDS011;54933;51.908;7.730;2023-08-06T09:26:36;12.57;;;2.00;;
13708;SDS011;54933;51.908;7.730;2023-08-06T09:29:04;8.97;;;1.20;;
13708;SDS011;54933;51.908;7.730;2023-08-06T09:31:40;4.70;;;1.30;;
13708;SDS011;54933;51.908;7.730;2023-08-06T09:34:16;64.63;;;5.17;;
13708;SDS011;54933;51.908;7.730;2023-08-06T09:36:47;25.87;;;2.93;;
13708;SDS011;54933;51.908;7.730;2023-08-06T09:39:16;27.17;;;3.43;;
13708;SDS011;54933;51.908;7.730;2023-08-06T09:41:47;31.67;;;3.80;;
13708;SDS011;54933;51.908;7.730;2023-08-06T09:46:41;20.13;;;3.47;;
13708;SDS011;54933;51.908;7.730;2023-08-06T09:49:06;31.97;;;3.67;;
13708;SDS011;54933;51.908;7.730;2023-08-06T09:51:33;26.00;;;2.53;;
13708;SDS011;54933;51.908;7.730;2023-08-06T09:53:59;19.83;;;2.00;;
13708;SDS011;54933;51.908;7.730;2023-08-06T09:56:25;16.37;;;2.00;;
13708;SDS011;54933;51.908;7.730;2023-08-06T09:58:51;19.03;;;2.30;;
13708;SDS011;54933;51.908;7.730;2023-08-06T10:01:18;15.70;;;2.20;;
13708;SDS011;54933;51.908;7.730;2023-08-06T10:03:44;10.30;;;1.30;;
13708;SDS011;54933;51.908;7.730;2023-08-06T10:06:10;12.40;;;1.70;;
13708;SDS011;54933;51.908;7.730;2023-08-06T10:08:37;16.03;;;1.90;;
13708;SDS011;54933;51.908;7.730;2023-08-06T10:11:03;17.10;;;2.13;;
13708;SDS011;54933;51.908;7.730;2023-08-06T10:13:30;10.97;;;2.60;;
13708;SDS011;54933;51.908;7.730;2023-08-06T10:15:57;10.03;;;1.80;;
13708;SDS011;54933;51.908;7.730;2023-08-06T10:18:22;8.67;;;1.33;;
13708;SDS011;54933;51.908;7.730;2023-08-06T10:20:48;9.73;;;1.80;;
13708;SDS011;54933;51.908;7.730;2023-08-06T10:23:13;9.10;;;1.73;;
13708;SDS011;54933;51.908;7.730;2023-08-06T10:25:40;15.70;;;1.27;;
13708;SDS011;54933;51.908;7.730;2023-08-06T10:28:09;10.37;;;1.60;;
13708;SDS011;54933;51.908;7.730;2023-08-06T10:30:43;10.10;;;1.40;;
13708;SDS011;54933;51.908;7.730;2023-08-06T10:33:09;9.37;;;1.50;;
13708;SDS011;54933;51.908;7.730;2023-08-06T10:38:10;7.43;;;1.63;;
13708;SDS011;54933;51.908;7.730;2023-08-06T10:40:36;6.47;;;1.30;;
13708;SDS011;54933;51.908;7.730;2023-08-06T10:43:04;8.53;;;1.30;;
13708;SDS011;54933;51.908;7.730;2023-08-06T10:45:33;4.73;;;1.03;;
13708;SDS011;54933;51.908;7.730;2023-08-06T10:47:59;7.40;;;1.17;;
13708;SDS011;54933;51.908;7.730;2023-08-06T10:50:25;2.23;;;1.03;;
13708;SDS011;54933;51.908;7.730;2023-08-06T10:52:50;7.03;;;1.13;;
13708;SDS011;54933;51.908;7.730;2023-08-06T10:55:22;4.40;;;1.03;;
13708;SDS011;54933;51.908;7.730;2023-08-06T10:57:49;7.73;;;1.37;;
13708;SDS011;54933;51.908;7.730;2023-08-06T11:00:14;5.40;;;1.17;;
13708;SDS011;54933;51.908;7.730;2023-08-06T11:02:40;6.90;;;1.30;;
13708;SDS011;54933;51.908;7.730;2023-08-06T11:05:06;9.67;;;1.30;;
13708;SDS011;54933;51.908;7.730;2023-08-06T11:07:32;5.60;;;1.43;;
13708;SDS011;54933;51.908;7.730;2023-08-06T11:10:04;5.80;;;1.27;;
13708;SDS011;54933;51.908;7.730;2023-08-06T11:12:31;2.33;;;1.00;;
13708;SDS011;54933;51.908;7.730;2023-08-06T11:14:57;3.33;;;1.30;;
13708;SDS011;54933;51.908;7.730;2023-08-06T11:17:23;3.43;;;1.10;;
13708;SDS011;54933;51.908;7.730;2023-08-06T11:19:49;7.03;;;0.97;;
13708;SDS011;54933;51.908;7.730;2023-08-06T11:22:15;2.80;;;1.13;;
13708;SDS011;54933;51.908;7.730;2023-08-06T11:24:42;8.50;;;1.43;;
13708;SDS011;54933;51.908;7.730;2023-08-06T11:27:11;6.23;;;1.13;;
13708;SDS011;54933;51.908;7.730;2023-08-06T11:29:38;1.10;;;1.10;;
13708;SDS011;54933;51.908;7.730;2023-08-06T11:32:04;6.63;;;0.97;;
13708;SDS011;54933;51.908;7.730;2023-08-06T11:34:30;1.50;;;1.00;;
13708;SDS011;54933;51.908;7.730;2023-08-06T11:36:56;2.07;;;0.83;;
13708;SDS011;54933;51.908;7.730;2023-08-06T11:39:21;7.20;;;1.10;;
13708;SDS011;54933;51.908;7.730;2023-08-06T11:41:47;5.43;;;1.27;;
13708;SDS011;54933;51.908;7.730;2023-08-06T11:44:13;102.33;;;9.13;;
13708;SDS011;54933;51.908;7.730;2023-08-06T11:46:54;72.33;;;7.07;;
13708;SDS011;54933;51.908;7.730;2023-08-06T11:52:09;87.30;;;6.30;;
13708;SDS011;54933;51.908;7.730;2023-08-06T11:54:36;70.37;;;6.70;;
13708;SDS011;54933;51.908;7.730;2023-08-06T11:57:02;71.13;;;6.27;;
13708;SDS011;54933;51.908;7.730;2023-08-06T11:59:28;71.40;;;6.57;;
13708;SDS011;54933;51.908;7.730;2023-08-06T12:01:53;55.13;;;6.97;;
13708;SDS011;54933;51.908;7.730;2023-08-06T12:04:19;56.20;;;6.10;;
13708;SDS011;54933;51.908;7.730;2023-08-06T12:06:44;77.87;;;6.43;;
13708;SDS011;54933;51.908;7.730;2023-08-06T12:09:09;72.23;;;6.50;;
13708;SDS011;54933;51.908;7.730;2023-08-06T12:11:35;51.00;;;4.87;;
13708;SDS011;54933;51.908;7.730;2023-08-06T12:14:00;51.07;;;5.20;;
13708;SDS011;54933;51.908;7.730;2023-08-06T12:16:27;39.17;;;5.47;;
13708;SDS011;54933;51.908;7.730;2023-08-06T12:18:53;25.30;;;3.73;;
13708;SDS011;54933;51.908;7.730;2023-08-06T12:21:18;11.33;;;2.00;;
13708;SDS011;54933;51.908;7.730;2023-08-06T12:23:43;5.73;;;2.00;;
13708;SDS011;54933;51.908;7.730;2023-08-06T12:26:09;12.63;;;1.60;;
13708;SDS011;54933;51.908;7.730;2023-08-06T12:28:35;43.27;;;4.63;;
13708;SDS011;54933;51.908;7.730;2023-08-06T12:31:00;126.00;;;10.27;;
13708;SDS011;54933;51.908;7.730;2023-08-06T12:33:26;24.20;;;3.20;;
13708;SDS011;54933;51.908;7.730;2023-08-06T12:35:51;20.97;;;3.33;;
13708;SDS011;54933;51.908;7.730;2023-08-06T12:38:19;18.83;;;2.40;;
13708;SDS011;54933;51.908;7.730;2023-08-06T12:40:44;23.33;;;2.33;;
13708;SDS011;54933;51.908;7.730;2023-08-06T12:43:09;14.97;;;2.10;;
13708;SDS011;54933;51.908;7.730;2023-08-06T12:45:35;12.90;;;1.97;;
13708;SDS011;54933;51.908;7.730;2023-08-06T12:48:00;10.53;;;2.17;;
13708;SDS011;54933;51.908;7.730;2023-08-06T12:50:25;233.63;;;16.10;;
13708;SDS011;54933;51.908;7.730;2023-08-06T12:52:51;144.00;;;11.17;;
13708;SDS011;54933;51.908;7.730;2023-08-06T12:55:16;91.40;;;7.17;;
13708;SDS011;54933;51.908;7.730;2023-08-06T12:57:41;94.03;;;8.23;;
13708;SDS011;54933;51.908;7.730;2023-08-06T13:00:07;65.57;;;6.07;;
13708;SDS011;54933;51.908;7.730;2023-08-06T13:02:32;117.30;;;10.60;;
13708;SDS011;54933;51.908;7.730;2023-08-06T13:04:58;99.23;;;8.73;;
13708;SDS011;54933;51.908;7.730;2023-08-06T13:07:23;67.23;;;6.90;;
13708;SDS011;54933;51.908;7.730;2023-08-06T13:09:48;72.60;;;8.77;;
13708;SDS011;54933;51.908;7.730;2023-08-06T13:12:13;68.47;;;8.80;;
13708;SDS011;54933;51.908;7.730;2023-08-06T13:14:39;75.43;;;7.53;;
13708;SDS011;54933;51.908;7.730;2023-08-06T13:17:04;64.13;;;6.90;;
13708;SDS011;54933;51.908;7.730;2023-08-06T13:19:31;64.07;;;6.30;;
13708;SDS011;54933;51.908;7.730;2023-08-06T13:22:01;56.00;;;5.70;;
13708;SDS011;54933;51.908;7.730;2023-08-06T13:24:28;55.40;;;5.73;;
13708;SDS011;54933;51.908;7.730;2023-08-06T13:26:54;59.03;;;6.90;;
13708;SDS011;54933;51.908;7.730;2023-08-06T13:29:19;52.23;;;6.67;;
13708;SDS011;54933;51.908;7.730;2023-08-06T13:31:44;15.17;;;3.77;;
13708;SDS011;54933;51.908;7.730;2023-08-06T13:34:10;25.80;;;4.43;;
13708;SDS011;54933;51.908;7.730;2023-08-06T13:36:35;39.63;;;4.10;;
13708;SDS011;54933;51.908;7.730;2023-08-06T13:39:00;37.63;;;3.73;;
13708;SDS011;54933;51.908;7.730;2023-08-06T13:41:26;24.53;;;3.83;;
13708;SDS011;54933;51.908;7.730;2023-08-06T13:43:51;43.33;;;4.07;;
13708;SDS011;54933;51.908;7.730;2023-08-06T13:46:17;83.27;;;7.23;;
13708;SDS011;54933;51.908;7.730;2023-08-06T13:48:44;52.33;;;5.90;;
13708;SDS011;54933;51.908;7.730;2023-08-06T13:51:11;17.30;;;2.83;;
13708;SDS011;54933;51.908;7.730;2023-08-06T13:53:37;27.23;;;3.87;;
13708;SDS011;54933;51.908;7.730;2023-08-06T13:56:04;34.03;;;2.67;;
13708;SDS011;54933;51.908;7.730;2023-08-06T13:58:29;89.37;;;6.00;;
13708;SDS011;54933;51.908;7.730;2023-08-06T14:00:55;9.63;;;1.70;;
13708;SDS011;54933;51.908;7.730;2023-08-06T14:03:21;40.60;;;3.90;;
13708;SDS011;54933;51.908;7.730;2023-08-06T14:05:47;34.43;;;3.67;;
13708;SDS011;54933;51.908;7.730;2023-08-06T14:08:13;26.67;;;3.77;;
13708;SDS011;54933;51.908;7.730;2023-08-06T14:10:38;33.90;;;4.33;;
13708;SDS011;54933;51.908;7.730;2023-08-06T14:13:07;20.53;;;2.57;;
13708;SDS011;54933;51.908;7.730;2023-08-06T14:16:05;21.80;;;2.70;;
13708;SDS011;54933;51.908;7.730;2023-08-06T14:18:30;21.90;;;2.80;;
13708;SDS011;54933;51.908;7.730;2023-08-06T14:20:56;23.23;;;2.90;;
13708;SDS011;54933;51.908;7.730;2023-08-06T14:23:21;26.53;;;2.80;;
13708;SDS011;54933;51.908;7.730;2023-08-06T14:25:46;29.20;;;2.43;;
13708;SDS011;54933;51.908;7.730;2023-08-06T14:28:12;20.80;;;2.60;;
13708;SDS011;54933;51.908;7.730;2023-08-06T14:30:38;27.10;;;3.37;;
13708;SDS011;54933;51.908;7.730;2023-08-06T14:33:04;17.87;;;2.40;;
13708;SDS011;54933;51.908;7.730;2023-08-06T14:35:30;16.93;;;2.00;;
13708;SDS011;54933;51.908;7.730;2023-08-06T14:37:55;8.00;;;1.97;;
13708;SDS011;54933;51.908;7.730;2023-08-06T14:40:20;12.13;;;2.00;;
13708;SDS011;54933;51.908;7.730;2023-08-06T14:42:46;16.93;;;2.43;;
13708;SDS011;54933;51.908;7.730;2023-08-06T14:45:13;17.27;;;2.13;;
13708;SDS011;54933;51.908;7.730;2023-08-06T14:47:38;8.87;;;2.50;;